createdAt,value
2019-05-20T00:00:07.684Z,19.40
2019-05-20T00:01:10.903Z,19.40
2019-05-20T00:02:24.546Z,19.40
2019-05-20T00:03:18.703Z,19.40
2019-05-20T00:04:21.692Z,19.40
2019-05-20T00:05:25.130Z,19.40
2019-05-20T00:06:28.159Z,19.50
2019-05-20T00:07:31.109Z,19.40
2019-05-20T00:08:33.984Z,19.40
2019-05-20T00:09:36.938Z,19.40
2019-05-20T00:10:39.899Z,19.40
2019-05-20T00:11:42.819Z,19.30
2019-05-20T00:12:45.783Z,19.20
2019-05-20T00:13:48.735Z,19.10
2019-05-20T00:14:51.681Z,19.00
2019-05-20T00:15:54.615Z,18.90
2019-05-20T00:16:57.576Z,18.80
2019-05-20T00:18:00.515Z,18.70
2019-05-20T00:19:03.510Z,18.70
2019-05-20T00:20:06.847Z,18.60
2019-05-20T00:21:09.766Z,18.50
2019-05-20T00:22:12.695Z,18.40
2019-05-20T00:23:15.626Z,18.30
2019-05-20T00:24:18.543Z,18.30
2019-05-20T00:25:21.505Z,18.30
2019-05-20T00:26:24.685Z,18.30
2019-05-20T00:27:27.706Z,18.30
2019-05-20T00:28:30.661Z,18.30
2019-05-20T00:29:33.605Z,18.40
2019-05-20T00:30:36.504Z,18.40
2019-05-20T00:31:39.433Z,18.40
2019-05-20T00:32:42.660Z,18.50
2019-05-20T00:33:45.597Z,18.60
2019-05-20T00:34:48.512Z,18.60
2019-05-20T00:35:51.490Z,18.70
2019-05-20T00:36:54.393Z,18.70
2019-05-20T00:37:57.327Z,18.70
2019-05-20T00:39:19.462Z,18.60
2019-05-20T00:40:22.401Z,18.50
2019-05-20T00:41:25.321Z,18.40
2019-05-20T00:42:28.474Z,18.30
2019-05-20T00:43:31.693Z,18.30
2019-05-20T00:44:34.706Z,18.20
2019-05-20T00:45:37.603Z,18.20
2019-05-20T00:46:40.502Z,18.30
2019-05-20T00:47:43.426Z,18.30
2019-05-20T00:48:46.360Z,18.30
2019-05-20T00:49:49.340Z,18.40
2019-05-20T00:50:52.262Z,18.50
2019-05-20T00:51:55.180Z,18.50
2019-05-20T00:52:58.266Z,18.50
2019-05-20T00:54:01.148Z,18.50
2019-05-20T00:55:04.733Z,18.50
2019-05-20T00:56:07.663Z,18.60
2019-05-20T00:57:10.615Z,18.60
2019-05-20T00:58:13.592Z,18.70
2019-05-20T00:59:16.501Z,18.70
2019-05-20T01:00:19.623Z,18.70
2019-05-20T01:01:22.562Z,18.70
2019-05-20T01:02:25.478Z,18.70
2019-05-20T01:03:28.454Z,18.70
2019-05-20T01:04:31.429Z,18.70
2019-05-20T01:05:34.429Z,18.70
2019-05-20T01:06:37.321Z,18.60
2019-05-20T01:07:40.386Z,18.60
2019-05-20T01:08:43.306Z,18.60
2019-05-20T01:09:46.317Z,18.60
2019-05-20T01:10:49.286Z,18.60
2019-05-20T01:11:52.205Z,18.60
2019-05-20T01:12:55.149Z,18.60
2019-05-20T01:13:58.053Z,18.60
2019-05-20T01:15:01.005Z,18.60
2019-05-20T01:16:04.049Z,18.60
2019-05-20T01:17:06.977Z,18.60
2019-05-20T01:18:09.814Z,18.60
2019-05-20T01:19:12.708Z,18.60
2019-05-20T01:20:16.320Z,18.60
2019-05-20T01:21:19.177Z,18.60
2019-05-20T01:22:22.170Z,18.70
2019-05-20T01:23:25.082Z,18.70
2019-05-20T01:24:28.027Z,18.70
2019-05-20T01:25:30.951Z,18.70
2019-05-20T01:26:33.911Z,18.70
2019-05-20T01:27:36.814Z,18.80
2019-05-20T01:28:39.725Z,18.80
2019-05-20T01:29:42.625Z,18.80
2019-05-20T01:30:45.709Z,18.70
2019-05-20T01:31:48.733Z,18.70
2019-05-20T01:32:51.668Z,18.70
2019-05-20T01:33:54.637Z,18.60
2019-05-20T01:34:57.598Z,18.60
2019-05-20T01:36:00.542Z,18.50
2019-05-20T01:37:03.515Z,18.50
2019-05-20T01:38:06.470Z,18.40
2019-05-20T01:39:09.381Z,18.40
2019-05-20T01:40:13.437Z,18.30
2019-05-20T01:41:16.384Z,18.30
2019-05-20T01:42:19.317Z,18.30
2019-05-20T01:43:22.278Z,18.30
2019-05-20T01:44:25.224Z,18.30
2019-05-20T01:45:28.056Z,18.30
2019-05-20T01:46:31.020Z,18.30
2019-05-20T01:47:33.974Z,18.30
2019-05-20T01:48:36.906Z,18.20
2019-05-20T01:49:39.836Z,18.20
2019-05-20T01:50:42.979Z,18.10
2019-05-20T01:51:45.938Z,18.10
2019-05-20T01:52:48.889Z,18.10
2019-05-20T01:53:51.792Z,18.00
2019-05-20T01:54:54.709Z,18.00
2019-05-20T01:55:57.691Z,18.00
2019-05-20T01:57:00.590Z,18.00
2019-05-20T01:58:03.581Z,18.00
2019-05-20T01:59:06.538Z,18.00
2019-05-20T02:00:10.244Z,18.10
2019-05-20T02:01:13.167Z,18.10
2019-05-20T02:02:16.123Z,18.20
2019-05-20T02:03:31.056Z,18.20
2019-05-20T02:04:23.978Z,18.20
2019-05-20T02:05:26.932Z,18.20
2019-05-20T02:06:30.901Z,18.30
2019-05-20T02:07:33.801Z,18.30
2019-05-20T02:08:37.740Z,18.30
2019-05-20T02:09:40.750Z,18.30
2019-05-20T02:10:43.670Z,18.30
2019-05-20T02:11:46.565Z,18.30
2019-05-20T02:12:49.521Z,18.30
2019-05-20T02:13:56.651Z,18.30
2019-05-20T02:15:05.571Z,18.20
2019-05-20T02:16:08.612Z,18.20
2019-05-20T02:17:11.551Z,18.20
2019-05-20T02:18:14.496Z,18.20
2019-05-20T02:19:17.425Z,18.20
2019-05-20T02:20:20.380Z,18.20
2019-05-20T02:21:23.291Z,18.20
2019-05-20T02:22:27.217Z,18.20
2019-05-20T02:23:30.120Z,18.10
2019-05-20T02:24:33.066Z,18.10
2019-05-20T02:25:36.028Z,18.10
2019-05-20T02:26:39.933Z,18.10
2019-05-20T02:27:42.946Z,18.10
2019-05-20T02:28:45.866Z,18.00
2019-05-20T02:29:48.812Z,18.00
2019-05-20T02:30:51.707Z,18.00
2019-05-20T02:31:54.619Z,18.00
2019-05-20T02:32:57.615Z,18.00
2019-05-20T02:34:00.541Z,18.00
2019-05-20T02:35:03.734Z,17.90
2019-05-20T02:36:06.713Z,18.00
2019-05-20T02:37:09.610Z,18.00
2019-05-20T02:38:12.534Z,18.00
2019-05-20T02:39:15.449Z,18.00
2019-05-20T02:40:18.609Z,18.00
2019-05-20T02:41:21.518Z,18.00
2019-05-20T02:42:24.457Z,18.00
2019-05-20T02:43:27.452Z,18.00
2019-05-20T02:44:30.347Z,18.00
2019-05-20T02:45:33.348Z,18.00
2019-05-20T02:46:36.283Z,18.00
2019-05-20T02:47:39.278Z,18.00
2019-05-20T02:48:42.253Z,18.10
2019-05-20T02:49:45.222Z,18.10
2019-05-20T02:50:48.200Z,18.10
2019-05-20T02:51:51.159Z,18.10
2019-05-20T02:52:54.120Z,18.20
2019-05-20T02:53:59.060Z,18.20
2019-05-20T02:55:01.972Z,18.20
2019-05-20T02:56:05.900Z,18.20
2019-05-20T02:57:08.880Z,18.20
2019-05-20T02:58:11.822Z,18.30
2019-05-20T02:59:14.737Z,18.30
2019-05-20T03:00:17.930Z,18.30
2019-05-20T03:01:22.122Z,18.30
2019-05-20T03:02:25.113Z,18.40
2019-05-20T03:03:28.154Z,18.40
2019-05-20T03:04:31.071Z,18.30
2019-05-20T03:05:34.691Z,18.20
2019-05-20T03:06:37.636Z,18.20
2019-05-20T03:07:40.560Z,18.10
2019-05-20T03:08:43.557Z,18.00
2019-05-20T03:09:46.526Z,18.00
2019-05-20T03:10:49.475Z,18.10
2019-05-20T03:11:52.446Z,18.10
2019-05-20T03:12:55.477Z,18.20
2019-05-20T03:13:58.398Z,18.20
2019-05-20T03:15:01.465Z,18.20
2019-05-20T03:16:04.418Z,18.20
2019-05-20T03:17:07.766Z,18.20
2019-05-20T03:18:10.662Z,18.20
2019-05-20T03:19:13.573Z,18.20
2019-05-20T03:20:16.581Z,18.20
2019-05-20T03:21:19.452Z,18.20
2019-05-20T03:22:22.458Z,18.20
2019-05-20T03:23:25.397Z,18.20
2019-05-20T03:24:28.623Z,18.20
2019-05-20T03:25:31.618Z,18.20
2019-05-20T03:26:34.554Z,18.20
2019-05-20T03:27:37.822Z,18.20
2019-05-20T03:28:40.787Z,18.20
2019-05-20T03:29:43.691Z,18.30
2019-05-20T03:30:46.623Z,18.30
2019-05-20T03:31:49.638Z,18.30
2019-05-20T03:32:52.667Z,18.30
2019-05-20T03:33:55.575Z,18.30
2019-05-20T03:35:00.852Z,18.30
2019-05-20T03:36:03.246Z,18.40
2019-05-20T03:37:06.179Z,18.40
2019-05-20T03:38:09.097Z,18.40
2019-05-20T03:39:12.049Z,18.40
2019-05-20T03:40:14.980Z,18.40
2019-05-20T03:41:18.242Z,18.40
2019-05-20T03:42:21.212Z,18.40
2019-05-20T03:43:24.258Z,18.40
2019-05-20T03:44:27.182Z,18.40
2019-05-20T03:45:30.086Z,18.40
2019-05-20T03:46:33.077Z,18.40
2019-05-20T03:47:36.026Z,18.40
2019-05-20T03:48:38.932Z,18.40
2019-05-20T03:49:41.895Z,18.50
2019-05-20T03:50:44.927Z,18.50
2019-05-20T03:51:52.333Z,18.50
2019-05-20T03:52:53.656Z,18.50
2019-05-20T03:53:56.646Z,18.50
2019-05-20T03:54:59.557Z,18.50
2019-05-20T03:56:02.578Z,18.50
2019-05-20T03:57:05.487Z,18.60
2019-05-20T03:58:12.832Z,18.60
2019-05-20T03:59:13.303Z,18.60
2019-05-20T04:00:19.878Z,18.60
2019-05-20T04:01:23.314Z,18.60
2019-05-20T04:02:26.263Z,18.60
2019-05-20T04:03:29.189Z,18.60
2019-05-20T04:04:32.447Z,18.60
2019-05-20T04:05:37.916Z,18.60
2019-05-20T04:06:41.134Z,18.60
2019-05-20T04:07:44.069Z,18.60
2019-05-20T04:08:47.098Z,18.60
2019-05-20T04:09:53.598Z,18.60
2019-05-20T04:10:56.534Z,18.60
2019-05-20T04:11:59.464Z,18.60
2019-05-20T04:13:02.374Z,18.60
2019-05-20T04:14:05.342Z,18.60
2019-05-20T04:15:09.444Z,18.60
2019-05-20T04:16:12.381Z,18.60
2019-05-20T04:17:15.350Z,18.60
2019-05-20T04:18:18.296Z,18.60
2019-05-20T04:19:21.447Z,18.60
2019-05-20T04:20:24.766Z,18.60
2019-05-20T04:21:27.744Z,18.60
2019-05-20T04:22:30.625Z,18.60
2019-05-20T04:23:36.989Z,18.50
2019-05-20T04:24:39.989Z,18.50
2019-05-20T04:25:42.983Z,18.50
2019-05-20T04:26:45.980Z,18.50
2019-05-20T04:27:48.925Z,18.50
2019-05-20T04:28:51.852Z,18.50
2019-05-20T04:29:54.809Z,18.50
2019-05-20T04:30:57.744Z,18.50
2019-05-20T04:32:00.721Z,18.50
2019-05-20T04:33:03.755Z,18.50
2019-05-20T04:34:07.389Z,18.50
2019-05-20T04:35:22.011Z,18.50
2019-05-20T04:36:15.973Z,18.50
2019-05-20T04:37:18.962Z,18.50
2019-05-20T04:38:21.879Z,18.50
2019-05-20T04:39:24.799Z,18.50
2019-05-20T04:40:27.729Z,18.50
2019-05-20T04:41:30.987Z,18.50
2019-05-20T04:42:33.931Z,18.50
2019-05-20T04:43:37.136Z,18.50
2019-05-20T04:44:40.045Z,18.50
2019-05-20T04:45:42.958Z,18.50
2019-05-20T04:46:45.995Z,18.50
2019-05-20T04:47:48.917Z,18.50
2019-05-20T04:48:51.877Z,18.50
2019-05-20T04:49:54.780Z,18.50
2019-05-20T04:50:58.704Z,18.50
2019-05-20T04:52:02.630Z,18.40
2019-05-20T04:53:05.597Z,18.40
2019-05-20T04:54:08.621Z,18.40
2019-05-20T04:55:11.643Z,18.40
2019-05-20T04:56:14.651Z,18.40
2019-05-20T04:57:17.584Z,18.30
2019-05-20T04:58:20.517Z,18.30
2019-05-20T04:59:23.522Z,18.30
2019-05-20T05:00:48.926Z,18.30
2019-05-20T05:01:52.878Z,18.20
2019-05-20T05:02:55.783Z,18.10
2019-05-20T05:03:58.854Z,18.10
2019-05-20T05:05:01.901Z,18.00
2019-05-20T05:06:05.907Z,18.00
2019-05-20T05:07:08.869Z,18.00
2019-05-20T05:08:11.830Z,18.00
2019-05-20T05:09:15.683Z,18.00
2019-05-20T05:10:18.869Z,18.00
2019-05-20T05:11:21.825Z,18.00
2019-05-20T05:12:24.986Z,18.00
2019-05-20T05:13:28.899Z,18.00
2019-05-20T05:14:31.869Z,18.00
2019-05-20T05:15:34.839Z,18.00
2019-05-20T05:16:37.719Z,18.00
2019-05-20T05:17:40.769Z,18.00
2019-05-20T05:18:44.733Z,18.00
2019-05-20T05:19:47.672Z,18.10
2019-05-20T05:20:50.730Z,18.10
2019-05-20T05:21:53.633Z,18.10
2019-05-20T05:22:56.910Z,18.20
2019-05-20T05:23:59.969Z,18.20
2019-05-20T05:25:03.272Z,18.30
2019-05-20T05:26:06.352Z,18.30
2019-05-20T05:27:09.300Z,18.30
2019-05-20T05:28:12.307Z,18.40
2019-05-20T05:29:15.234Z,18.40
2019-05-20T05:30:18.192Z,18.40
2019-05-20T05:31:21.147Z,18.40
2019-05-20T05:32:42.285Z,18.40
2019-05-20T05:33:46.288Z,18.40
2019-05-20T05:34:49.325Z,18.40
2019-05-20T05:35:53.759Z,18.40
2019-05-20T05:36:56.873Z,18.40
2019-05-20T05:37:59.971Z,18.50
2019-05-20T05:39:04.225Z,18.50
2019-05-20T05:40:08.349Z,18.50
2019-05-20T05:41:12.366Z,18.50
2019-05-20T05:42:15.347Z,18.50
2019-05-20T05:43:18.406Z,18.40
2019-05-20T05:44:21.333Z,18.40
2019-05-20T05:45:29.616Z,18.50
2019-05-20T05:46:32.626Z,18.50
2019-05-20T05:47:35.697Z,18.50
2019-05-20T05:48:38.708Z,18.50
2019-05-20T05:49:41.662Z,18.50
2019-05-20T05:50:44.516Z,18.50
2019-05-20T05:51:47.466Z,18.60
2019-05-20T05:52:50.478Z,18.60
2019-05-20T05:53:53.477Z,18.50
2019-05-20T05:54:57.413Z,18.50
2019-05-20T05:56:00.503Z,18.60
2019-05-20T05:57:03.462Z,18.60
2019-05-20T05:58:08.814Z,18.60
2019-05-20T05:59:11.224Z,18.60
2019-05-20T06:00:16.050Z,18.60
2019-05-20T06:01:18.963Z,18.60
2019-05-20T06:02:21.978Z,18.60
2019-05-20T06:03:24.950Z,18.60
2019-05-20T06:04:27.842Z,18.60
2019-05-20T06:05:31.763Z,18.60
2019-05-20T06:06:34.932Z,18.60
2019-05-20T06:07:37.882Z,18.60
2019-05-20T06:08:40.867Z,18.60
2019-05-20T06:09:43.887Z,18.70
2019-05-20T06:10:46.852Z,18.70
2019-05-20T06:11:49.876Z,18.70
2019-05-20T06:12:52.785Z,18.70
2019-05-20T06:13:55.809Z,18.70
2019-05-20T06:14:58.973Z,18.70
2019-05-20T06:16:01.881Z,18.70
2019-05-20T06:17:05.286Z,18.70
2019-05-20T06:18:08.209Z,18.70
2019-05-20T06:19:12.509Z,18.80
2019-05-20T06:20:16.411Z,18.80
2019-05-20T06:21:19.301Z,18.80
2019-05-20T06:22:22.214Z,18.80
2019-05-20T06:23:25.137Z,18.90
2019-05-20T06:24:28.157Z,18.80
2019-05-20T06:25:31.053Z,18.80
2019-05-20T06:26:34.122Z,18.80
2019-05-20T06:27:37.134Z,18.80
2019-05-20T06:28:40.095Z,18.80
2019-05-20T06:29:43.061Z,18.80
2019-05-20T06:30:46.317Z,18.90
2019-05-20T06:31:49.250Z,18.80
2019-05-20T06:32:52.184Z,18.80
2019-05-20T06:33:55.085Z,18.80
2019-05-20T06:34:58.121Z,18.80
2019-05-20T06:36:01.285Z,18.80
2019-05-20T06:37:06.412Z,18.70
2019-05-20T06:38:37.974Z,18.80
2019-05-20T06:39:41.017Z,18.80
2019-05-20T06:40:43.993Z,18.80
2019-05-20T06:41:46.945Z,18.70
2019-05-20T06:42:50.325Z,18.70
2019-05-20T06:43:53.234Z,18.70
2019-05-20T06:44:57.409Z,18.80
2019-05-20T06:46:01.161Z,18.80
2019-05-20T06:47:04.129Z,18.80
2019-05-20T06:48:07.061Z,18.80
2019-05-20T06:49:10.062Z,18.80
2019-05-20T06:50:13.248Z,18.80
2019-05-20T06:51:16.258Z,18.80
2019-05-20T06:52:34.805Z,18.80
2019-05-20T06:53:23.944Z,18.80
2019-05-20T06:54:27.021Z,18.80
2019-05-20T06:55:29.979Z,18.90
2019-05-20T06:56:32.925Z,18.90
2019-05-20T06:57:36.012Z,19.00
2019-05-20T06:58:39.322Z,19.00
2019-05-20T06:59:43.233Z,19.00
2019-05-20T07:00:46.224Z,19.00
2019-05-20T07:01:49.234Z,19.00
2019-05-20T07:02:52.310Z,19.10
2019-05-20T07:03:55.210Z,19.10
2019-05-20T07:04:58.202Z,19.20
2019-05-20T07:06:01.170Z,19.20
2019-05-20T07:07:19.980Z,19.30
2019-05-20T07:08:09.051Z,19.30
2019-05-20T07:09:12.291Z,19.40
2019-05-20T07:10:15.415Z,19.40
2019-05-20T07:11:18.608Z,19.50
2019-05-20T07:12:21.889Z,19.60
2019-05-20T07:13:25.003Z,19.60
2019-05-20T07:14:28.033Z,19.70
2019-05-20T07:15:31.248Z,19.70
2019-05-20T07:16:34.327Z,19.70
2019-05-20T07:17:38.273Z,19.70
2019-05-20T07:18:42.240Z,19.70
2019-05-20T07:19:45.274Z,19.60
2019-05-20T07:20:48.627Z,19.60
2019-05-20T07:21:51.662Z,19.60
2019-05-20T07:22:56.840Z,19.60
2019-05-20T07:24:00.129Z,19.60
2019-05-20T07:25:03.152Z,19.50
2019-05-20T07:26:07.739Z,19.50
2019-05-20T07:27:10.788Z,19.60
2019-05-20T07:28:14.755Z,19.60
2019-05-20T07:29:17.730Z,19.60
2019-05-20T07:30:20.768Z,19.60
2019-05-20T07:31:23.878Z,19.60
2019-05-20T07:32:26.843Z,19.50
2019-05-20T07:33:30.000Z,19.50
2019-05-20T07:34:32.908Z,19.50
2019-05-20T07:35:35.812Z,19.40
2019-05-20T07:36:38.782Z,19.40
2019-05-20T07:37:41.745Z,19.50
2019-05-20T07:38:44.780Z,19.50
2019-05-20T07:39:47.730Z,19.60
2019-05-20T07:40:50.905Z,19.70
2019-05-20T07:41:53.872Z,19.80
2019-05-20T07:42:56.862Z,19.80
2019-05-20T07:44:00.191Z,19.90
2019-05-20T07:45:04.994Z,19.90
2019-05-20T07:46:08.916Z,19.90
2019-05-20T07:47:12.145Z,19.80
2019-05-20T07:48:15.850Z,19.80
2019-05-20T07:49:19.093Z,19.80
2019-05-20T07:50:22.403Z,19.80
2019-05-20T07:51:26.223Z,19.80
2019-05-20T07:52:29.350Z,19.80
2019-05-20T07:53:33.075Z,19.80
2019-05-20T07:54:36.362Z,19.80
2019-05-20T07:55:46.421Z,19.80
2019-05-20T07:56:51.966Z,19.80
2019-05-20T07:57:59.678Z,19.80
2019-05-20T07:59:04.124Z,19.90
2019-05-20T08:00:08.065Z,19.90
2019-05-20T08:01:11.306Z,19.90
2019-05-20T08:02:14.557Z,20.00
2019-05-20T08:03:17.487Z,20.00
2019-05-20T08:04:20.532Z,20.00
2019-05-20T08:05:23.543Z,20.00
2019-05-20T08:06:26.510Z,20.00
2019-05-20T08:07:49.863Z,20.00
2019-05-20T08:08:34.451Z,20.00
2019-05-20T08:09:44.619Z,20.00
2019-05-20T08:10:42.507Z,20.00
2019-05-20T08:11:45.781Z,19.90
2019-05-20T08:12:48.843Z,19.90
2019-05-20T08:13:51.965Z,19.80
2019-05-20T08:14:54.917Z,19.80
2019-05-20T08:15:57.965Z,19.70
2019-05-20T08:17:00.922Z,19.70
2019-05-20T08:18:04.304Z,19.70
2019-05-20T08:19:07.221Z,19.70
2019-05-20T08:20:10.425Z,19.60
2019-05-20T08:21:13.509Z,19.60
2019-05-20T08:22:16.788Z,19.60
2019-05-20T08:23:19.903Z,19.60
2019-05-20T08:24:22.868Z,19.70
2019-05-20T08:25:25.864Z,19.70
2019-05-20T08:26:29.067Z,19.70
2019-05-20T08:27:31.961Z,19.80
2019-05-20T08:28:34.893Z,19.80
2019-05-20T08:29:37.928Z,19.80
2019-05-20T08:30:40.886Z,19.80
2019-05-20T08:31:43.843Z,19.80
2019-05-20T08:32:47.104Z,19.80
2019-05-20T08:33:50.066Z,19.80
2019-05-20T08:34:53.034Z,19.80
2019-05-20T08:35:55.977Z,19.80
2019-05-20T08:36:58.971Z,19.80
2019-05-20T08:38:02.002Z,19.80
2019-05-20T08:39:07.300Z,19.80
2019-05-20T08:40:10.413Z,19.80
2019-05-20T08:41:13.331Z,19.80
2019-05-20T08:42:16.278Z,19.80
2019-05-20T08:43:19.589Z,19.80
2019-05-20T08:44:22.851Z,19.80
2019-05-20T08:45:25.775Z,19.80
2019-05-20T08:46:28.721Z,19.80
2019-05-20T08:47:31.729Z,19.90
2019-05-20T08:48:34.922Z,19.90
2019-05-20T08:49:38.158Z,20.10
2019-05-20T08:50:41.221Z,20.10
2019-05-20T08:51:46.030Z,20.20
2019-05-20T08:52:49.208Z,20.30
2019-05-20T08:53:52.238Z,20.30
2019-05-20T08:54:55.232Z,20.40
2019-05-20T08:55:58.381Z,20.50
2019-05-20T08:57:01.273Z,20.60
2019-05-20T08:58:04.330Z,20.60
2019-05-20T08:59:09.046Z,20.70
2019-05-20T09:00:22.960Z,20.70
2019-05-20T09:01:23.015Z,20.70
2019-05-20T09:02:26.155Z,20.70
2019-05-20T09:03:31.077Z,20.70
2019-05-20T09:04:34.070Z,20.60
2019-05-20T09:05:37.018Z,20.70
2019-05-20T09:06:39.980Z,20.70
2019-05-20T09:07:42.893Z,20.70
2019-05-20T09:08:46.412Z,20.80
2019-05-20T09:09:49.701Z,20.80
2019-05-20T09:10:52.673Z,20.80
2019-05-20T09:11:55.652Z,20.90
2019-05-20T09:12:58.602Z,20.90
2019-05-20T09:14:01.662Z,20.90
2019-05-20T09:15:04.801Z,20.90
2019-05-20T09:16:07.793Z,20.90
2019-05-20T09:17:10.701Z,20.90
2019-05-20T09:18:13.647Z,20.90
2019-05-20T09:19:16.664Z,20.90
2019-05-20T09:20:19.706Z,20.80
2019-05-20T09:21:22.677Z,20.80
2019-05-20T09:22:25.870Z,20.80
2019-05-20T09:23:28.819Z,20.80
2019-05-20T09:24:31.965Z,20.80
2019-05-20T09:25:34.901Z,20.80
2019-05-20T09:26:37.860Z,20.80
2019-05-20T09:27:40.922Z,20.80
2019-05-20T09:28:43.861Z,20.80
2019-05-20T09:29:46.823Z,20.90
2019-05-20T09:30:50.214Z,20.90
2019-05-20T09:31:53.362Z,21.00
2019-05-20T09:32:56.391Z,21.10
2019-05-20T09:33:59.448Z,21.10
2019-05-20T09:35:02.662Z,21.20
2019-05-20T09:36:05.931Z,21.20
2019-05-20T09:37:09.880Z,21.30
2019-05-20T09:38:20.054Z,21.30
2019-05-20T09:39:17.696Z,21.30
2019-05-20T09:40:36.175Z,21.30
2019-05-20T09:41:39.182Z,21.30
2019-05-20T09:42:42.104Z,21.30
2019-05-20T09:43:45.241Z,21.30
2019-05-20T09:44:48.241Z,21.30
2019-05-20T09:46:05.624Z,21.30
2019-05-20T09:46:56.018Z,21.30
2019-05-20T09:47:59.015Z,21.40
2019-05-20T09:49:01.924Z,21.40
2019-05-20T09:50:05.241Z,21.40
2019-05-20T09:51:08.554Z,21.40
2019-05-20T09:52:11.501Z,21.40
2019-05-20T09:53:14.431Z,21.40
2019-05-20T09:54:17.648Z,21.40
2019-05-20T09:55:20.717Z,21.40
2019-05-20T09:56:23.702Z,21.40
2019-05-20T09:57:28.953Z,21.40
2019-05-20T09:58:31.978Z,21.40
2019-05-20T09:59:43.196Z,21.40
2019-05-20T10:00:40.060Z,21.40
2019-05-20T10:01:43.136Z,21.50
2019-05-20T10:02:46.087Z,21.50
2019-05-20T10:03:49.089Z,21.50
2019-05-20T10:04:52.257Z,21.50
2019-05-20T10:05:55.410Z,21.60
2019-05-20T10:06:58.412Z,21.60
2019-05-20T10:08:01.612Z,21.60
2019-05-20T10:09:05.647Z,21.60
2019-05-20T10:10:09.765Z,21.60
2019-05-20T10:11:12.726Z,21.60
2019-05-20T10:12:15.667Z,21.70
2019-05-20T10:13:18.588Z,21.70
2019-05-20T10:14:21.577Z,21.70
2019-05-20T10:15:24.987Z,21.70
2019-05-20T10:16:27.913Z,21.70
2019-05-20T10:17:30.872Z,21.70
2019-05-20T10:18:38.081Z,21.70
2019-05-20T10:19:38.620Z,21.70
2019-05-20T10:20:41.681Z,21.70
2019-05-20T10:21:44.644Z,21.70
2019-05-20T10:22:47.657Z,21.80
2019-05-20T10:23:50.590Z,21.80
2019-05-20T10:24:53.527Z,21.90
2019-05-20T10:25:56.445Z,21.90
2019-05-20T10:26:59.401Z,22.00
2019-05-20T10:28:03.362Z,22.00
2019-05-20T10:29:06.414Z,22.00
2019-05-20T10:30:09.867Z,22.10
2019-05-20T10:31:12.794Z,22.10
2019-05-20T10:32:15.958Z,22.20
2019-05-20T10:33:19.075Z,22.10
2019-05-20T10:34:21.981Z,22.20
2019-05-20T10:35:24.936Z,22.20
2019-05-20T10:36:27.877Z,22.10
2019-05-20T10:37:30.884Z,22.10
2019-05-20T10:38:33.830Z,22.10
2019-05-20T10:39:36.999Z,22.00
2019-05-20T10:40:39.909Z,22.10
2019-05-20T10:41:42.721Z,22.10
2019-05-20T10:42:45.651Z,22.20
2019-05-20T10:43:48.642Z,22.20
2019-05-20T10:44:51.567Z,22.30
2019-05-20T10:45:54.499Z,22.40
2019-05-20T10:46:57.413Z,22.40
2019-05-20T10:48:00.408Z,22.40
2019-05-20T10:49:03.465Z,22.40
2019-05-20T10:50:07.645Z,22.40
2019-05-20T10:51:10.695Z,22.40
2019-05-20T10:52:13.651Z,22.40
2019-05-20T10:53:16.618Z,22.30
2019-05-20T10:54:19.601Z,22.40
2019-05-20T10:55:22.713Z,22.40
2019-05-20T10:56:25.630Z,22.50
2019-05-20T10:57:28.565Z,22.50
2019-05-20T10:58:31.554Z,22.50
2019-05-20T10:59:34.545Z,22.60
2019-05-20T11:00:40.367Z,22.60
2019-05-20T11:01:43.307Z,22.50
2019-05-20T11:02:46.350Z,22.50
2019-05-20T11:03:49.388Z,22.50
2019-05-20T11:04:52.380Z,22.50
2019-05-20T11:05:55.281Z,22.50
2019-05-20T11:06:58.451Z,22.60
2019-05-20T11:08:01.473Z,22.60
2019-05-20T11:09:13.544Z,22.60
2019-05-20T11:10:10.504Z,22.50
2019-05-20T11:11:14.316Z,22.50
2019-05-20T11:12:17.680Z,22.50
2019-05-20T11:13:20.562Z,22.50
2019-05-20T11:14:23.617Z,22.60
2019-05-20T11:15:26.581Z,22.60
2019-05-20T11:16:29.550Z,22.60
2019-05-20T11:17:32.594Z,22.60
2019-05-20T11:18:35.470Z,22.70
2019-05-20T11:19:38.447Z,22.80
2019-05-20T11:20:41.812Z,22.90
2019-05-20T11:21:44.770Z,22.90
2019-05-20T11:22:47.729Z,23.00
2019-05-20T11:23:50.778Z,23.00
2019-05-20T11:24:53.824Z,23.00
2019-05-20T11:25:57.650Z,23.00
2019-05-20T11:27:00.698Z,23.00
2019-05-20T11:28:03.693Z,23.10
2019-05-20T11:29:06.701Z,23.10
2019-05-20T11:30:09.968Z,23.10
2019-05-20T11:31:13.013Z,23.10
2019-05-20T11:32:16.367Z,23.10
2019-05-20T11:33:19.332Z,23.20
2019-05-20T11:34:22.281Z,23.20
2019-05-20T11:35:25.202Z,23.30
2019-05-20T11:36:28.251Z,23.30
2019-05-20T11:37:31.177Z,23.40
2019-05-20T11:38:34.225Z,23.40
2019-05-20T11:39:37.168Z,23.50
2019-05-20T11:40:40.582Z,23.40
2019-05-20T11:41:58.920Z,23.50
2019-05-20T11:42:48.394Z,23.60
2019-05-20T11:43:52.310Z,23.70
2019-05-20T11:44:55.404Z,23.80
2019-05-20T11:45:58.362Z,23.90
2019-05-20T11:47:01.337Z,24.00
2019-05-20T11:48:04.350Z,24.10
2019-05-20T11:49:07.411Z,24.00
2019-05-20T11:50:11.028Z,24.00
2019-05-20T11:51:17.134Z,24.00
2019-05-20T11:52:20.386Z,23.90
2019-05-20T11:53:23.302Z,23.90
2019-05-20T11:54:26.247Z,23.80
2019-05-20T11:55:29.273Z,23.80
2019-05-20T11:56:32.310Z,23.80
2019-05-20T11:57:35.326Z,23.70
2019-05-20T11:58:38.315Z,23.70
2019-05-20T11:59:41.253Z,23.70
2019-05-20T12:00:44.253Z,23.60
2019-05-20T12:01:47.203Z,23.60
2019-05-20T12:02:50.207Z,23.50
2019-05-20T12:03:53.236Z,23.50
2019-05-20T12:04:56.216Z,23.40
2019-05-20T12:05:59.185Z,23.40
2019-05-20T12:07:02.170Z,23.40
2019-05-20T12:08:05.165Z,23.30
2019-05-20T12:09:08.197Z,23.20
2019-05-20T12:10:11.342Z,23.20
2019-05-20T12:11:14.349Z,23.20
2019-05-20T12:12:17.455Z,23.20
2019-05-20T12:13:20.421Z,23.20
2019-05-20T12:14:23.350Z,23.20
2019-05-20T12:15:26.321Z,23.20
2019-05-20T12:16:29.256Z,23.30
2019-05-20T12:17:32.233Z,23.50
2019-05-20T12:18:35.220Z,23.70
2019-05-20T12:19:38.134Z,23.90
2019-05-20T12:20:41.113Z,24.00
2019-05-20T12:21:44.029Z,24.20
2019-05-20T12:22:46.951Z,24.40
2019-05-20T12:23:49.969Z,24.60
2019-05-20T12:24:52.891Z,24.80
2019-05-20T12:25:55.951Z,25.00
2019-05-20T12:26:58.862Z,25.20
2019-05-20T12:28:01.825Z,25.30
2019-05-20T12:29:04.844Z,25.50
2019-05-20T12:30:08.794Z,25.60
2019-05-20T12:31:12.075Z,25.80
2019-05-20T12:32:15.224Z,25.90
2019-05-20T12:33:19.525Z,25.90
2019-05-20T12:34:22.914Z,26.00
2019-05-20T12:35:25.838Z,26.10
2019-05-20T12:36:28.845Z,26.10
2019-05-20T12:37:31.795Z,26.10
2019-05-20T12:38:34.772Z,25.90
2019-05-20T12:39:37.747Z,25.80
2019-05-20T12:40:41.045Z,25.70
2019-05-20T12:41:43.980Z,25.70
2019-05-20T12:42:46.904Z,25.60
2019-05-20T12:44:09.593Z,25.60
2019-05-20T12:44:54.774Z,25.60
2019-05-20T12:45:58.125Z,25.50
2019-05-20T12:47:01.082Z,25.60
2019-05-20T12:48:04.132Z,25.60
2019-05-20T12:49:07.192Z,25.70
2019-05-20T12:50:12.218Z,25.80
2019-05-20T12:51:15.172Z,25.80
2019-05-20T12:52:18.109Z,25.90
2019-05-20T12:53:21.092Z,25.90
2019-05-20T12:54:23.981Z,25.90
2019-05-20T12:55:26.934Z,25.90
2019-05-20T12:56:29.877Z,25.80
2019-05-20T12:57:32.799Z,25.70
2019-05-20T12:58:35.733Z,25.60
2019-05-20T12:59:38.729Z,25.50
2019-05-20T13:00:41.697Z,25.40
2019-05-20T13:01:44.699Z,25.40
2019-05-20T13:02:47.596Z,25.30
2019-05-20T13:03:50.585Z,25.30
2019-05-20T13:04:53.654Z,25.20
2019-05-20T13:05:56.661Z,25.20
2019-05-20T13:06:59.604Z,25.10
2019-05-20T13:08:02.674Z,25.20
2019-05-20T13:09:06.241Z,25.20
2019-05-20T13:10:28.320Z,25.40
2019-05-20T13:11:15.871Z,25.50
2019-05-20T13:12:19.025Z,25.60
2019-05-20T13:13:22.018Z,25.70
2019-05-20T13:14:24.934Z,25.80
2019-05-20T13:15:27.893Z,25.90
2019-05-20T13:16:30.968Z,25.90
2019-05-20T13:17:34.038Z,26.00
2019-05-20T13:18:36.986Z,26.10
2019-05-20T13:19:39.946Z,26.20
2019-05-20T13:20:42.961Z,26.20
2019-05-20T13:21:45.971Z,26.30
2019-05-20T13:22:48.997Z,26.40
2019-05-20T13:23:52.232Z,26.40
2019-05-20T13:24:55.276Z,26.40
2019-05-20T13:25:58.487Z,26.30
2019-05-20T13:27:01.545Z,26.30
2019-05-20T13:28:07.282Z,26.30
2019-05-20T13:29:10.211Z,26.20
2019-05-20T13:30:13.420Z,26.20
2019-05-20T13:31:16.363Z,26.20
2019-05-20T13:32:19.343Z,26.20
2019-05-20T13:33:22.395Z,26.20
2019-05-20T13:34:25.352Z,26.20
2019-05-20T13:35:28.396Z,26.20